Latest Coastal Weather Observations for Cape Otway

IDT60701

Issued at 11:52 am EDT Tuesday 6 December 2016 (issued every 10 minutes, with the page automatically refreshed every 10 minutes)

About coastal observations | Map of coastal stations | Coastal observations for TAS | Marine services | Other Formats
Station Details ID: 090015 Name: CAPE OTWAY LIGHTHOUSE Lat: -38.86 Lon: 143.51 Height: 82.0 m
Data from the previous 72 hours. | See also: Recent months at Cape Otway
Date/Time
EDT
Temp
°C
Wind Pressure Rain since
9am
mm
Weather Cloud Vis
km
Sea
Height
m
Swell
Dir  Spd
kts
Gust
kts
hPa Trend Height
m
Period
s
Dir
06/11:30am 15.8 WSW 9 13 1014.6 - 0.0 - - - - - - -
06/11:00am 15.6 W 9 13 1014.7 - 0.0 - - - - - - -
06/10:30am 15.1 W 9 12 1014.6 - 0.0 - - - - - - -
06/10:00am 15.8 W 8 12 1014.2 - 0.0 - - - - - - -
06/09:30am 14.7 WNW 8 11 1014.5 - 0.0 - - - - - - -
06/09:00am 13.9 WNW 7 9 1014.2 - 0.0 - - - - - - -
06/08:30am 13.9 N 5 7 1013.9 - 0.0 - - - - - - -
06/08:00am 12.3 N 5 6 1014.1 - 0.0 - - - - - - -
06/07:30am 11.0 N 7 8 1013.8 - 0.0 - - - - - - -
06/07:00am 10.3 N 6 7 1013.7 - 0.0 - - - - - - -
06/06:30am 9.5 NNW 6 7 1013.5 - 0.0 - - - - - - -
06/06:00am 9.0 N 7 8 1013.4 - 0.0 - - - - - - -
06/05:30am 8.5 NW 6 7 1013.6 - 0.0 - - - - - - -
06/05:00am 8.3 NW 6 7 1013.2 - 0.0 - - - - - - -
06/04:30am 8.1 NNW 5 7 1012.6 - 0.0 - - - - - - -
06/04:00am 8.4 N 2 6 1012.6 - 0.0 - - - - - - -
06/03:30am 8.2 NNE 2 3 1012.4 - 0.0 - - - - - - -
06/03:00am 8.5 NNE 4 5 1012.1 - 0.0 - - - - - - -
06/02:30am 8.5 NNE 4 5 1012.3 - 0.0 - - - - - - -
06/02:00am 8.5 NNE 4 5 1012.8 - 0.0 - - - - - - -
06/01:30am 8.4 N 5 7 1013.9 - 0.0 - - - - - - -
06/01:00am 8.7 N 4 5 1014.1 - 0.0 - - - - - - -
06/12:30am 10.1 NE 1 4 1013.9 - 0.0 - - - - - - -
06/12:00am 11.5 W 1 5 1014.0 - 0.0 - - - - - - -
 
Date/Time
EDT
Temp
°C
Wind Pressure Rain since
9am
mm
Weather Cloud Vis
km
Sea
Height
m
Swell
Dir  Spd
kts
Gust
kts
hPa Trend Height
m
Period
s
Dir
05/11:30pm 11.8 S 3 6 1014.3 - 0.0 - - - - - - -
05/11:00pm 12.5 SW 4 6 1014.2 - 0.0 - - - - - - -
05/10:30pm 12.7 SSW 5 7 1014.3 - 0.0 - - - - - - -
05/10:00pm 12.8 SSW 6 9 1014.8 - 0.0 - - - - - - -
05/09:30pm 13.0 SW 7 10 1015.3 - 0.0 - - - - - - -
05/09:00pm 13.1 SW 6 8 1015.0 - 0.0 - - - - - - -
05/08:30pm 13.2 SSW 7 9 1014.7 - 0.0 - - - - - - -
05/08:00pm 13.8 SSW 7 10 1014.0 - 0.0 - - - - - - -
05/07:30pm 13.7 SSW 9 13 1014.1 - 0.0 - - - - - - -
05/07:00pm 13.9 SW 12 16 1014.2 - 0.0 - - - - - - -
05/06:30pm 14.2 SW 12 15 1014.1 - 0.0 - - - - - - -
05/06:00pm 14.3 SW 11 15 1013.6 - 0.0 - - - - - - -
05/05:30pm 14.8 SSW 9 13 1013.1 - 0.0 - - - - - - -
05/05:00pm 14.8 SSW 11 14 1013.4 - 0.0 - - - - - - -
05/04:30pm 15.1 WSW 10 15 1013.7 - 0.0 - - - - - - -
05/04:00pm 15.5 WSW 9 12 1013.6 - 0.0 - - - - - - -
05/03:30pm 15.1 SW 12 15 1013.6 - 0.0 - - - - - - -
05/03:00pm 15.3 SW 13 15 1013.1 - 0.0 - - - - - - -
05/02:30pm 15.4 SW 12 15 1013.0 - 0.0 - - - - - - -
05/02:00pm 15.3 SW 14 19 1013.2 - 0.0 - - - - - - -
05/01:30pm 15.5 SW 14 18 1013.2 - 0.0 - - - - - - -
05/01:00pm 15.0 WSW 12 17 1013.0 - 0.0 - - - - - - -
05/12:30pm 15.8 W 13 21 1012.9 - 0.0 - - - - - - -
05/12:00pm 15.3 WSW 14 18 1012.8 - 0.0 - - - - - - -
05/11:30am 16.2 W 14 19 1012.6 - 0.0 - - - - - - -
05/11:00am 16.4 W 13 17 1012.5 - 0.0 - - - - - - -
05/10:30am 15.7 W 15 19 1012.3 - 0.0 - - - - - - -
05/10:00am 15.4 W 14 19 1012.1 - 0.0 - - - - - - -
05/09:30am 15.6 W 17 22 1011.6 - 0.0 - - - - - - -
05/09:00am 14.9 W 16 23 1011.3 - 2.4 - - - - - - -
05/08:30am 15.2 WSW 18 25 1010.7 - 2.4 - - - - - - -
05/08:00am 14.6 WSW 19 27 1010.1 - 2.4 - - - - - - -
05/07:30am 14.3 W 21 28 1009.3 - 2.4 - - - - - - -
05/07:00am 14.6 W 19 25 1008.8 - 2.4 - - - - - - -
05/06:30am 14.5 W 20 27 1008.4 - 2.4 - - - - - - -
05/06:00am 14.6 W 21 28 1007.9 - 2.4 - - - - - - -
05/05:30am 14.4 W 20 28 1007.7 - 2.4 - - - - - - -
05/05:00am 14.5 W 21 29 1007.1 - 2.4 - - - - - - -
05/04:30am 14.6 W 21 27 1006.4 - 2.4 - - - - - - -
05/04:00am 15.0 W 20 28 1005.9 - 2.4 - - - - - - -
05/03:48am 14.6 W 19 29 1005.7 - 2.4 - - - - - - -
05/03:30am 15.1 W 17 24 1005.5 - 2.4 - - - - - - -
05/03:00am 15.5 W 18 27 1005.0 - 2.4 Rain - - - - - -
05/02:55am 15.6 WNW 17 27 1005.0 - 2.2 - - - - - - -
05/02:30am 16.2 WNW 18 27 1004.6 - 2.2 - - - - - - -
05/02:03am 17.4 WNW 18 29 1003.8 - 2.2 - - - - - - -
05/02:00am 17.5 WNW 17 25 1003.8 - 2.2 - - - - - - -
05/01:36am 18.9 W 23 33 1003.0 - 2.2 - - - - - - -
05/01:30am 19.7 WNW 22 32 1002.8 - 2.2 - - - - - - -
05/01:24am 22.4 NW 19 31 1002.4 - 2.2 - - - - - - -
05/01:00am 23.5 NNW 23 40 1001.6 - 2.2 - - - - - - -
05/12:30am 23.3 NNW 22 35 1001.3 - 2.2 - - - - - - -
05/12:00am 23.1 NNW 18 31 1001.3 - 2.2 - - - - - - -
 
Date/Time
EDT
Temp
°C
Wind Pressure Rain since
9am
mm
Weather Cloud Vis
km
Sea
Height
m
Swell
Dir  Spd
kts
Gust
kts
hPa Trend Height
m
Period
s
Dir
04/11:30pm 22.0 N 19 31 1001.2 - 2.2 - - - - - - -
04/11:00pm 21.9 N 19 29 1001.3 - 2.2 - - - - - - -
04/10:30pm 21.9 N 21 32 1001.7 - 2.2 - - - - - - -
04/10:00pm 21.8 N 22 33 1001.8 - 2.2 - - - - - - -
04/09:43pm 21.6 N 19 29 1001.7 - 2.2 - - - - - - -
04/09:30pm 21.7 N 18 27 1001.8 - 2.2 - - - - - - -
04/09:19pm 21.6 N 19 29 1001.9 - 2.2 - - - - - - -
04/09:00pm 21.4 N 19 27 1002.0 - 2.2 - - - - - - -
04/08:30pm 21.1 N 17 27 1002.3 - 2.2 - - - - - - -
04/08:27pm 21.0 N 15 27 1002.3 - 2.2 - - - - - - -
04/08:00pm 20.6 N 13 21 1002.9 - 2.2 - - - - - - -
04/07:31pm 20.0 N 17 27 1002.9 - 2.2 - - - - - - -
04/07:30pm 20.0 N 18 27 1002.9 - 2.2 - - - - - - -
04/07:13pm 19.6 N 15 28 1003.5 - 2.2 - - - - - - -
04/07:00pm 19.7 NNW 13 22 1003.8 - 2.0 - - - - - - -
04/06:30pm 20.0 N 11 20 1004.5 - 1.4 - - - - - - -
04/06:00pm 21.5 NW 15 23 1005.0 - 0.2 Recent precip. - - - - - -
04/05:30pm 23.2 WNW 15 26 1004.5 - 0.0 - - - - - - -
04/05:24pm 24.4 W 10 26 1004.1 - 0.0 - - - - - - -
04/05:00pm 26.4 W 4 7 1003.4 - 0.0 - - - - - - -
04/04:30pm 25.6 SW 5 10 1004.1 - 0.0 - - - - - - -
04/04:00pm 29.7 NW 10 17 1004.5 - 0.0 - - - - - - -
04/03:30pm 29.5 W 5 13 1004.8 - 0.0 - - - - - - -
04/03:00pm 25.8 SSW 3 6 1005.3 - 0.0 - - - - - - -
04/02:30pm 24.2 E 6 8 1005.5 - 0.0 - - - - - - -
04/02:00pm 20.6 E 6 8 1005.8 - 0.0 - - - - - - -
04/01:30pm 20.0 ESE 7 11 1006.4 - 0.0 - - - - - - -
04/01:00pm 21.0 SE 5 9 1006.7 - 0.0 - - - - - - -
04/12:30pm 23.7 NW 6 12 1006.7 - 0.0 - - - - - - -
04/12:00pm 23.7 E 6 8 1006.9 - 0.0 - - - - - - -
04/11:30am 20.5 E 9 13 1007.3 - 0.0 - - - - - - -
04/11:00am 21.3 E 7 11 1007.8 - 0.0 - - - - - - -
04/10:30am 20.7 E 6 8 1008.6 - 0.0 - - - - - - -
04/10:00am 18.9 E 8 12 1008.9 - 0.0 - - - - - - -
04/09:30am 17.5 E 10 12 1009.0 - 0.0 - - - - - - -
04/09:00am 17.6 E 8 11 1009.2 - 0.0 - - - - - - -
04/08:30am 16.2 E 9 11 1009.2 - 0.0 - - - - - - -
04/08:00am 15.2 ENE 11 13 1009.4 - 0.0 - - - - - - -
04/07:30am 15.1 ENE 11 15 1009.0 - 0.0 - - - - - - -
04/07:00am 14.2 NE 12 17 1009.4 - 0.0 - - - - - - -
04/06:30am 13.5 ENE 12 18 1009.7 - 0.0 - - - - - - -
04/06:00am 13.3 ENE 11 16 1009.5 - 0.0 - - - - - - -
04/05:30am 13.0 ENE 16 21 1009.4 - 0.0 - - - - - - -
04/05:00am 13.0 ENE 16 23 1009.7 - 0.0 - - - - - - -
04/04:30am 13.1 ENE 16 23 1010.1 - 0.0 - - - - - - -
04/04:00am 13.2 ENE 15 23 1010.2 - 0.0 - - - - - - -
04/03:30am 13.1 ENE 16 25 1010.3 - 0.0 - - - - - - -
04/03:00am 13.1 ENE 15 21 1010.7 - 0.0 - - - - - - -
04/02:30am 13.1 ENE 16 23 1010.9 - 0.0 - - - - - - -
04/02:00am 13.3 ENE 16 22 1011.5 - 0.0 - - - - - - -
04/01:30am 13.3 ENE 18 25 1011.7 - 0.0 - - - - - - -
04/01:00am 13.3 ENE 17 23 1012.2 - 0.0 - - - - - - -
04/12:30am 13.4 ENE 17 23 1012.7 - 0.0 - - - - - - -
04/12:00am 13.5 ENE 15 21 1013.3 - 0.0 - - - - - - -
 
Date/Time
EDT
Temp
°C
Wind Pressure Rain since
9am
mm
Weather Cloud Vis
km
Sea
Height
m
Swell
Dir  Spd
kts
Gust
kts
hPa Trend Height
m
Period
s
Dir
03/11:30pm 13.6 ENE 15 21 1013.9 - 0.0 - - - - - - -
03/11:00pm 13.8 ENE 15 20 1014.1 - 0.0 - - - - - - -
03/10:30pm 13.9 ENE 15 20 1014.2 - 0.0 - - - - - - -
03/10:00pm 13.8 ENE 14 20 1014.4 - 0.0 - - - - - - -
03/09:30pm 13.8 ENE 14 19 1014.2 - 0.0 - - - - - - -
03/09:00pm 13.9 E 15 19 1014.1 - 0.0 - - - - - - -
03/08:30pm 14.1 E 14 19 1014.3 - 0.0 - - - - - - -
03/08:00pm 14.5 E 14 19 1014.3 - 0.0 - - - - - - -
03/07:30pm 14.7 E 12 19 1014.3 - 0.0 - - - - - - -
03/07:00pm 15.1 E 9 14 1014.4 - 0.0 - - - - - - -
03/06:30pm 15.5 E 10 16 1014.5 - 0.0 - - - - - - -
03/06:00pm 15.6 E 9 14 1014.5 - 0.0 - - - - - - -
03/05:30pm 16.1 E 11 16 1014.5 - 0.0 - - - - - - -
03/05:00pm 16.4 E 11 16 1014.8 - 0.0 - - - - - - -
03/04:30pm 16.3 E 12 19 1014.8 - 0.0 - - - - - - -
03/04:00pm 16.7 E 10 16 1015.0 - 0.0 - - - - - - -
03/03:30pm 17.0 E 11 15 1015.1 - 0.0 - - - - - - -
03/03:00pm 16.5 E 12 16 1015.3 - 0.0 - - - - - - -
03/02:30pm 16.9 E 11 17 1015.5 - 0.0 - - - - - - -
03/02:00pm 16.6 ESE 12 15 1015.8 - 0.0 - - - - - - -
03/01:30pm 16.0 ESE 12 15 1015.9 - 0.0 - - - - - - -
03/01:00pm 16.1 ESE 12 15 1015.9 - 0.0 - - - - - - -
03/12:30pm 16.0 ESE 11 13 1016.1 - 0.0 - - - - - - -
03/12:00pm 16.5 ESE 9 12 1016.4 - 0.0 - - - - - - -

Other Formats:

Comma delimited format used in spreadsheet applications
http://www.bom.gov.au/fwo/IDT60701/IDT60701.94842.axf

JavaScript Object Notation format (JSON) in row-major order
http://www.bom.gov.au/fwo/IDT60701/IDT60701.94842.json